Time;durP1;ratioP1;P1;durP2;ratioP2;P2;SDS_P1;SDS_P2;PMS_P1;PMS_P2;Temp;Humidity;BMP_temperature;BMP_pressure;BME280_temperature;BME280_humidity;BME280_pressure;Samples;Min_cycle;Max_cycle;Signal;HPM_P1;HPM_P2
2021/04/04 00:02:19;;;;;;;8.73;3.67;;;1.90;99.90;;;;;;4792459;29;20137;-78
2021/04/04 00:04:51;;;;;;;8.48;3.67;;;1.90;99.90;;;;;;4793270;29;20093;-78
2021/04/04 00:07:23;;;;;;;5.03;3.40;;;1.90;99.90;;;;;;4807092;29;20058;-78
2021/04/04 00:09:54;;;;;;;5.93;3.72;;;1.80;99.90;;;;;;4806686;29;20086;-79
2021/04/04 00:12:25;;;;;;;9.90;3.90;;;1.80;99.90;;;;;;4792909;29;20140;-78
2021/04/04 00:14:52;;;;;;;7.75;3.53;;;1.80;99.90;;;;;;4807894;29;20138;-78
2021/04/04 00:17:23;;;;;;;6.82;3.67;;;1.70;99.90;;;;;;4792886;29;20070;-78
2021/04/04 00:19:54;;;;;;;7.13;4.10;;;1.70;99.90;;;;;;4807529;29;20050;-78
2021/04/04 00:22:25;;;;;;;7.80;4.20;;;1.70;99.90;;;;;;4793000;29;20050;-78
2021/04/04 00:24:57;;;;;;;7.90;4.07;;;1.70;99.90;;;;;;4824278;29;20156;-78
2021/04/04 00:27:23;;;;;;;8.63;4.53;;;1.70;99.90;;;;;;4806764;29;20482;-78
2021/04/04 00:29:54;;;;;;;6.22;3.88;;;1.70;99.90;;;;;;4805022;29;20133;-79
2021/04/04 00:32:21;;;;;;;9.07;4.28;;;1.70;99.90;;;;;;4790691;29;20467;-78
2021/04/04 00:34:52;;;;;;;6.03;3.92;;;1.60;99.90;;;;;;4790723;29;20126;-78
2021/04/04 00:37:19;;;;;;;10.90;4.70;;;1.60;99.90;;;;;;4790632;29;20050;-78
2021/04/04 00:39:45;;;;;;;6.55;4.25;;;1.60;99.90;;;;;;4806760;29;20133;-79
2021/04/04 00:42:16;;;;;;;6.75;3.92;;;1.60;99.90;;;;;;4807582;29;20049;-79
2021/04/04 00:44:48;;;;;;;5.30;3.60;;;1.50;99.90;;;;;;4806895;29;20141;-78
2021/04/04 00:47:19;;;;;;;9.80;4.80;;;1.50;99.90;;;;;;4791977;29;20058;-78
2021/04/04 00:49:50;;;;;;;7.57;5.40;;;1.50;99.90;;;;;;4806592;29;20141;-79
2021/04/04 00:52:22;;;;;;;9.95;4.72;;;1.40;99.90;;;;;;4792307;29;20068;-78
2021/04/04 00:54:53;;;;;;;8.80;4.25;;;1.40;99.90;;;;;;4807628;29;20526;-78
2021/04/04 00:57:25;;;;;;;8.73;4.60;;;1.30;99.90;;;;;;4806597;29;20058;-78
2021/04/04 00:59:56;;;;;;;7.28;3.70;;;1.30;99.90;;;;;;4791469;29;20617;-78
2021/04/04 01:02:27;;;;;;;7.80;4.00;;;1.30;99.90;;;;;;4792460;29;20050;-78
2021/04/04 01:05:00;;;;;;;7.95;3.85;;;1.20;99.90;;;;;;4792015;29;20146;-78
2021/04/04 01:07:34;;;;;;;7.82;4.53;;;1.20;99.90;;;;;;4792003;29;20523;-78
2021/04/04 01:10:08;;;;;;;7.60;4.13;;;1.10;99.90;;;;;;4791559;29;20086;-78
2021/04/04 01:12:58;;;;;;;;;;;1.00;99.90;;;;;;4792115;29;20046;-78
2021/04/04 01:15:33;;;;;;;10.98;4.43;;;0.90;99.90;;;;;;4791629;29;19924;-78
2021/04/04 01:18:10;;;;;;;9.30;4.10;;;0.80;99.90;;;;;;4806173;29;20057;-78
2021/04/04 01:20:56;;;;;;;6.57;3.92;;;0.70;99.90;;;;;;4792057;29;20145;-78
2021/04/04 01:23:57;;;;;;;7.18;4.28;;;0.60;99.90;;;;;;4792244;29;20141;-78
2021/04/04 01:27:02;;;;;;;9.30;5.53;;;0.70;99.90;;;;;;4791818;29;20145;-78
2021/04/04 01:29:37;;;;;;;8.70;3.75;;;0.70;99.90;;;;;;4791479;29;20149;-78
2021/04/04 01:32:09;;;;;;;6.60;4.25;;;0.60;99.90;;;;;;4791190;29;20055;-78
2021/04/04 01:34:42;;;;;;;7.75;4.32;;;0.60;99.90;;;;;;4805953;29;22045;-79
2021/04/04 01:37:14;;;;;;;10.25;4.07;;;0.70;99.90;;;;;;4791461;29;20567;-79
2021/04/04 01:39:51;;;;;;;8.23;4.05;;;0.70;99.90;;;;;;4790668;29;20582;-79
2021/04/04 01:42:22;;;;;;;8.95;4.25;;;0.70;99.90;;;;;;4805870;29;20038;-78
2021/04/04 01:44:54;;;;;;;7.10;4.95;;;0.70;99.90;;;;;;4791692;29;20082;-78
2021/04/04 01:47:27;;;;;;;9.38;3.67;;;0.70;99.90;;;;;;4803112;29;20054;-79
2021/04/04 01:49:59;;;;;;;6.95;3.65;;;0.80;99.90;;;;;;4791115;29;20110;-78
2021/04/04 01:52:31;;;;;;;5.78;3.85;;;0.80;99.90;;;;;;4791377;29;20046;-79
2021/04/04 01:55:03;;;;;;;5.57;3.67;;;0.80;99.90;;;;;;4806415;29;20044;-78
2021/04/04 01:57:35;;;;;;;7.90;3.28;;;0.80;99.90;;;;;;4791477;29;20042;-79
2021/04/04 02:00:10;;;;;;;6.90;3.95;;;0.80;99.90;;;;;;4805067;29;20047;-78
2021/04/04 02:02:44;;;;;;;6.57;3.78;;;0.90;99.90;;;;;;4791313;29;20150;-79
2021/04/04 02:05:17;;;;;;;6.20;3.38;;;0.90;99.90;;;;;;4791380;29;20422;-78
2021/04/04 02:07:50;;;;;;;7.88;3.88;;;0.90;99.90;;;;;;4805239;29;20088;-78
2021/04/04 02:10:26;;;;;;;10.63;3.67;;;0.90;99.90;;;;;;4791219;29;20503;-78
2021/04/04 02:13:01;;;;;;;5.20;3.15;;;0.90;99.90;;;;;;4791215;29;20150;-78
2021/04/04 02:15:31;;;;;;;7.18;3.40;;;0.90;99.90;;;;;;4805263;29;20214;-78
2021/04/04 02:17:58;;;;;;;7.93;3.90;;;0.80;99.90;;;;;;4789934;29;20050;-78
2021/04/04 02:20:32;;;;;;;4.63;3.30;;;0.80;99.90;;;;;;4790812;29;20133;-79
2021/04/04 02:23:12;;;;;;;7.28;4.28;;;0.80;99.90;;;;;;4790654;29;20110;-79
2021/04/04 02:25:43;;;;;;;8.02;4.53;;;0.80;99.90;;;;;;4805077;29;20129;-78
2021/04/04 02:28:15;;;;;;;8.75;4.40;;;0.70;99.90;;;;;;4790332;29;20054;-78
2021/04/04 02:30:47;;;;;;;6.07;3.55;;;0.70;99.90;;;;;;4805848;29;20089;-79
2021/04/04 02:33:25;;;;;;;8.60;4.85;;;0.70;99.90;;;;;;4790550;29;20149;-78
2021/04/04 02:36:02;;;;;;;5.43;3.33;;;0.70;99.90;;;;;;4805368;29;20130;-79
2021/04/04 02:38:50;;;;;;;8.48;3.67;;;0.70;99.90;;;;;;4805084;29;20418;-78
2021/04/04 02:41:22;;;;;;;7.63;3.58;;;0.60;99.90;;;;;;4790392;29;20080;-79
2021/04/04 02:43:54;;;;;;;6.80;3.28;;;0.60;99.90;;;;;;4805437;29;20046;-78
2021/04/04 02:46:27;;;;;;;6.35;3.95;;;0.60;99.90;;;;;;4790930;29;20141;-79
2021/04/04 02:49:03;;;;;;;5.05;3.25;;;0.60;99.90;;;;;;4789793;29;20054;-79
2021/04/04 02:52:03;;;;;;;7.90;3.42;;;0.60;99.90;;;;;;4790807;29;20122;-79
2021/04/04 02:54:32;;;;;;;7.05;3.60;;;0.50;99.90;;;;;;4802185;29;20066;-79
2021/04/04 02:57:05;;;;;;;8.98;3.72;;;0.50;99.90;;;;;;4791115;29;20236;-78
2021/04/04 02:59:49;;;;;;;8.15;3.47;;;0.50;99.90;;;;;;4804754;29;20108;-79
2021/04/04 03:02:23;;;;;;;8.40;3.90;;;0.50;99.90;;;;;;4791008;29;20414;-78
2021/04/04 03:04:55;;;;;;;;;;;0.50;99.90;;;;;;4791374;29;20149;-79
2021/04/04 03:07:27;;;;;;;4.38;3.10;;;0.50;99.90;;;;;;4806304;29;20060;-78
2021/04/04 03:10:02;;;;;;;6.53;3.67;;;0.40;99.90;;;;;;4790344;29;20149;-79
2021/04/04 03:12:29;;;;;;;7.20;3.50;;;0.40;99.90;;;;;;4793395;29;20085;-78
2021/04/04 03:15:04;;;;;;;10.88;4.28;;;0.40;99.90;;;;;;4793967;29;20053;-78
2021/04/04 03:17:39;;;;;;;5.50;3.70;;;0.30;99.90;;;;;;4808658;29;20066;-78
2021/04/04 03:20:13;;;;;;;8.23;3.83;;;0.30;99.90;;;;;;4794343;29;20147;-78
2021/04/04 03:22:46;;;;;;;6.25;3.70;;;0.30;99.90;;;;;;4808339;29;20042;-79
2021/04/04 03:25:19;;;;;;;5.55;3.70;;;0.30;99.90;;;;;;4794109;29;20148;-78
2021/04/04 03:27:51;;;;;;;8.82;3.42;;;0.30;99.90;;;;;;4793959;29;20077;-78
2021/04/04 03:30:35;;;;;;;9.77;4.45;;;0.20;99.90;;;;;;4793941;29;20515;-79
2021/04/04 03:33:08;;;;;;;9.00;4.30;;;0.20;99.90;;;;;;4807774;29;20512;-78
2021/04/04 03:35:40;;;;;;;6.63;3.58;;;0.20;99.90;;;;;;4793718;29;20464;-78
2021/04/04 03:38:13;;;;;;;9.00;4.05;;;0.10;99.90;;;;;;4807772;29;20081;-78
2021/04/04 03:40:45;;;;;;;8.25;4.63;;;0.20;99.90;;;;;;4794003;29;20133;-78
2021/04/04 03:43:33;;;;;;;9.00;3.83;;;0.10;99.90;;;;;;4793476;29;20528;-78
2021/04/04 03:46:05;;;;;;;5.65;3.85;;;0.20;99.90;;;;;;4793155;29;20537;-78
2021/04/04 03:48:39;;;;;;;7.97;4.68;;;0.20;99.90;;;;;;4793095;29;20061;-78
2021/04/04 03:51:11;;;;;;;9.10;4.72;;;0.20;99.90;;;;;;4808514;29;20057;-79
2021/04/04 03:53:45;;;;;;;6.47;4.63;;;0.20;99.90;;;;;;4808294;29;20065;-78
2021/04/04 03:56:25;;;;;;;10.15;4.53;;;0.10;99.90;;;;;;4807857;29;20074;-78
2021/04/04 03:59:05;;;;;;;7.53;5.97;;;0.20;99.90;;;;;;4792929;29;20069;-79
2021/04/04 04:01:39;;;;;;;9.05;5.45;;;0.20;99.90;;;;;;4824398;29;20322;-78
2021/04/04 04:04:12;;;;;;;7.90;5.10;;;0.10;99.90;;;;;;4793840;29;20137;-78
2021/04/04 04:06:45;;;;;;;6.55;3.67;;;0.10;99.90;;;;;;4793776;29;20412;-78
2021/04/04 04:09:18;;;;;;;11.02;3.85;;;0.10;99.90;;;;;;4807371;29;20093;-78
2021/04/04 04:11:51;;;;;;;7.55;3.85;;;0.10;99.90;;;;;;4793601;29;20050;-79
2021/04/04 04:14:23;;;;;;;7.60;4.32;;;0.20;99.90;;;;;;4793313;29;20086;-78
2021/04/04 04:16:54;;;;;;;6.35;3.70;;;0.20;99.90;;;;;;4795072;29;20474;-81
2021/04/04 04:19:41;;;;;;;6.22;4.20;;;0.10;99.90;;;;;;4814354;29;20054;-78
2021/04/04 04:22:14;;;;;;;10.25;4.82;;;0.10;99.90;;;;;;4792326;29;20149;-78
2021/04/04 04:24:48;;;;;;;5.78;4.53;;;0.00;99.90;;;;;;4793359;29;20157;-79
2021/04/04 04:27:20;;;;;;;7.03;4.57;;;0.00;99.90;;;;;;4793008;29;20138;-79
2021/04/04 04:29:52;;;;;;;8.35;4.55;;;0.00;99.90;;;;;;4792655;29;20045;-78
2021/04/04 04:32:25;;;;;;;8.05;4.18;;;0.00;99.90;;;;;;4793508;29;20113;-78
2021/04/04 04:34:57;;;;;;;6.90;3.92;;;-0.10;99.90;;;;;;4793456;29;20042;-78
2021/04/04 04:37:32;;;;;;;7.05;4.22;;;-0.20;99.90;;;;;;4793272;29;20060;-78
2021/04/04 04:39:59;;;;;;;8.10;4.35;;;-0.20;99.90;;;;;;4791741;29;20050;-78
2021/04/04 04:42:32;;;;;;;7.22;4.22;;;-0.30;99.90;;;;;;4792471;29;20511;-78
2021/04/04 04:45:04;;;;;;;6.50;5.03;;;-0.30;99.90;;;;;;4792925;29;20464;-78
2021/04/04 04:47:36;;;;;;;7.60;4.43;;;-0.40;99.90;;;;;;4792646;29;20474;-78
2021/04/04 04:50:09;;;;;;;8.35;5.38;;;-0.50;99.90;;;;;;4792139;29;20054;-78
2021/04/04 04:52:41;;;;;;;7.20;4.40;;;-0.40;99.90;;;;;;4791726;29;20051;-78
2021/04/04 04:55:12;;;;;;;9.38;4.93;;;-0.40;99.90;;;;;;4792334;29;20057;-78
2021/04/04 04:57:45;;;;;;;9.43;4.20;;;-0.40;99.90;;;;;;4791485;29;20047;-78
2021/04/04 05:00:17;;;;;;;9.43;5.72;;;-0.40;99.90;;;;;;4806389;29;20137;-78
2021/04/04 05:02:49;;;;;;;6.50;4.27;;;-0.40;99.90;;;;;;4793249;29;20074;-78
2021/04/04 05:05:21;;;;;;;9.23;4.40;;;-0.40;99.90;;;;;;4788081;29;20046;-78
2021/04/04 05:07:54;;;;;;;10.15;4.80;;;-0.40;99.90;;;;;;4803135;29;20138;-78
2021/04/04 05:10:27;;;;;;;12.88;4.75;;;-0.40;99.90;;;;;;4768156;29;20137;-78
2021/04/04 05:13:02;;;;;;;14.70;5.03;;;-0.50;99.90;;;;;;4772105;29;20050;-78
2021/04/04 05:15:34;;;;;;;7.72;4.82;;;-0.50;99.90;;;;;;4769248;30;20499;-78
2021/04/04 05:18:05;;;;;;;11.52;5.10;;;-0.50;99.90;;;;;;4786609;29;20051;-78
2021/04/04 05:20:38;;;;;;;11.10;5.00;;;-0.50;99.90;;;;;;4786946;29;20115;-78
2021/04/04 05:23:09;;;;;;;7.80;4.43;;;-0.50;99.90;;;;;;4787341;29;20129;-78
2021/04/04 05:25:44;;;;;;;9.50;4.70;;;-0.50;99.90;;;;;;4786414;29;20511;-78
2021/04/04 05:28:10;;;;;;;12.25;5.38;;;-0.50;99.90;;;;;;4785747;29;20382;-78
2021/04/04 05:30:37;;;;;;;8.48;4.43;;;-0.40;99.90;;;;;;4786239;29;20092;-78
2021/04/04 05:33:04;;;;;;;6.82;4.30;;;-0.40;99.90;;;;;;4785817;29;20108;-78
2021/04/04 05:35:39;;;;;;;9.85;5.22;;;-0.30;99.90;;;;;;4768546;29;20107;-78
2021/04/04 05:38:11;;;;;;;8.70;4.00;;;-0.30;99.90;;;;;;4803240;29;20049;-78
2021/04/04 05:40:44;;;;;;;11.10;6.03;;;-0.20;99.90;;;;;;4788097;29;20042;-78
2021/04/04 05:43:24;;;;;;;7.17;4.50;;;-0.20;99.90;;;;;;4786547;29;20705;-77
2021/04/04 05:46:02;;;;;;;6.38;4.07;;;-0.10;99.90;;;;;;4802080;29;20472;-78
2021/04/04 05:48:54;;;;;;;8.23;4.30;;;-0.10;99.90;;;;;;4784917;29;20064;-78
2021/04/04 05:51:42;;;;;;;10.23;4.32;;;0.00;99.90;;;;;;4786780;29;20142;-78
2021/04/04 05:57:56;;;;;;;9.18;4.03;;;0.00;99.90;;;;;;4784662;29;20137;-79
2021/04/04 06:00:32;;;;;;;6.82;3.70;;;0.10;99.90;;;;;;4785726;29;20142;-79
2021/04/04 06:03:13;;;;;;;6.95;3.95;;;0.10;99.90;;;;;;4771596;29;20142;-79
2021/04/04 06:06:33;;;;;;;7.57;3.63;;;0.10;99.90;;;;;;4785308;29;20082;-79
2021/04/04 06:09:18;;;;;;;9.45;3.88;;;0.20;99.90;;;;;;4700421;30;20051;-79
2021/04/04 06:12:28;;;;;;;6.15;3.90;;;0.20;99.90;;;;;;4772847;29;20049;-79
2021/04/04 06:15:26;;;;;;;7.20;4.10;;;0.30;99.90;;;;;;4787349;29;20410;-79
2021/04/04 06:18:28;;;;;;;7.55;3.42;;;0.40;99.90;;;;;;4785916;29;20465;-79
2021/04/04 06:21:22;;;;;;;12.55;6.18;;;0.50;99.90;;;;;;4771909;29;20050;-79
2021/04/04 06:24:04;;;;;;;15.50;8.00;;;0.50;99.90;;;;;;4768686;30;20143;-79
2021/04/04 06:27:09;;;;;;;62.80;24.15;;;0.60;99.90;;;;;;4767816;30;20055;-79
2021/04/04 06:29:49;;;;;;;15.20;8.98;;;0.70;99.90;;;;;;4800948;29;20057;-79
2021/04/04 06:32:48;;;;;;;49.95;20.95;;;0.70;99.90;;;;;;4797001;29;20475;-78
2021/04/04 06:35:39;;;;;;;57.58;28.45;;;0.70;99.90;;;;;;4766578;30;20051;-79
2021/04/04 06:38:38;;;;;;;71.20;30.63;;;0.80;99.90;;;;;;4763068;29;20417;-79
2021/04/04 06:41:52;;;;;;;23.35;12.02;;;0.80;99.90;;;;;;4772539;29;20043;-79
2021/04/04 06:44:33;;;;;;;23.83;12.07;;;0.80;99.90;;;;;;4784593;29;20051;-79
2021/04/04 06:47:11;;;;;;;24.67;12.13;;;0.90;99.90;;;;;;4772177;29;20502;-79
2021/04/04 06:50:05;;;;;;;25.20;11.53;;;1.00;99.90;;;;;;4789851;29;20138;-79
2021/04/04 06:52:56;;;;;;;49.15;21.33;;;1.20;99.90;;;;;;4790432;29;20061;-79
2021/04/04 06:55:54;;;;;;;73.07;31.42;;;1.30;99.90;;;;;;4790001;29;20897;-79
2021/04/04 06:58:25;;;;;;;29.85;14.75;;;1.30;99.90;;;;;;4789014;29;20133;-79
2021/04/04 07:01:37;;;;;;;31.50;14.13;;;1.40;99.90;;;;;;4788941;29;20042;-79
2021/04/04 07:04:21;;;;;;;22.80;11.10;;;1.50;99.90;;;;;;4774947;29;20118;-79
2021/04/04 07:07:11;;;;;;;25.23;12.25;;;1.60;99.90;;;;;;4774821;29;20057;-79
2021/04/04 07:10:07;;;;;;;21.73;11.77;;;1.70;99.90;;;;;;4787893;29;20610;-79
2021/04/04 07:13:03;;;;;;;97.40;43.67;;;1.80;99.90;;;;;;4788561;29;20137;-79
2021/04/04 07:15:55;;;;;;;151.52;64.22;;;1.90;99.90;;;;;;4788461;29;20045;-79
2021/04/04 07:18:48;;;;;;;33.30;17.38;;;2.10;99.90;;;;;;4788069;29;20615;-80
2021/04/04 07:21:51;;;;;;;30.58;16.05;;;2.20;99.90;;;;;;4773601;29;20138;-79
2021/04/04 07:24:56;;;;;;;39.47;19.02;;;2.60;99.90;;;;;;4788788;29;20499;-79
2021/04/04 07:27:48;;;;;;;57.95;32.08;;;2.90;99.90;;;;;;4819178;29;20427;-80
2021/04/04 07:30:37;;;;;;;31.90;17.90;;;3.00;99.90;;;;;;4775118;29;20545;-79
2021/04/04 07:33:14;;;;;;;24.52;15.07;;;3.10;99.90;;;;;;4788599;29;20138;-80
2021/04/04 07:36:09;;;;;;;17.13;10.23;;;3.20;99.90;;;;;;4773844;29;20141;-79
2021/04/04 07:38:51;;;;;;;11.70;8.48;;;3.20;99.90;;;;;;4756280;29;20145;-80
2021/04/04 07:41:41;;;;;;;12.98;7.47;;;3.30;99.90;;;;;;4788294;29;20174;-80
2021/04/04 07:44:26;;;;;;;9.43;6.75;;;3.40;99.90;;;;;;4773386;29;20096;-80
2021/04/04 07:47:12;;;;;;;13.10;7.75;;;3.50;99.90;;;;;;4788313;29;20058;-79
2021/04/04 07:49:48;;;;;;;17.30;11.50;;;3.60;99.90;;;;;;4801614;29;20054;-79
2021/04/04 07:52:38;;;;;;;32.90;18.98;;;3.70;99.90;;;;;;4788123;29;20142;-79
2021/04/04 07:55:15;;;;;;;21.50;14.63;;;3.80;99.90;;;;;;4787943;29;20550;-79
2021/04/04 07:58:17;;;;;;;10.68;7.18;;;4.00;99.90;;;;;;4803361;29;20089;-80
2021/04/04 08:00:54;;;;;;;10.68;5.60;;;4.10;99.90;;;;;;4790394;29;20145;-81
2021/04/04 08:03:28;;;;;;;9.57;5.85;;;4.30;99.90;;;;;;4788527;29;20047;-80
2021/04/04 08:06:07;;;;;;;8.63;5.00;;;4.30;99.90;;;;;;4788529;29;20054;-80
2021/04/04 08:08:47;;;;;;;12.18;5.88;;;4.50;99.90;;;;;;4773423;29;20104;-80
2021/04/04 08:11:27;;;;;;;11.63;6.10;;;4.70;99.90;;;;;;4773926;29;20055;-80
2021/04/04 08:14:06;;;;;;;7.75;4.82;;;4.80;99.90;;;;;;4788159;29;20484;-80
2021/04/04 08:16:46;;;;;;;8.07;4.82;;;4.90;99.90;;;;;;4788408;29;20059;-80
2021/04/04 08:19:17;;;;;;;10.13;4.63;;;5.10;99.90;;;;;;4801886;29;20050;-80
2021/04/04 08:21:54;;;;;;;9.00;4.57;;;5.20;99.90;;;;;;4772857;29;20145;-80
2021/04/04 08:24:36;;;;;;;10.93;6.63;;;5.40;99.90;;;;;;4787894;29;20061;-80
2021/04/04 08:27:07;;;;;;;7.50;4.93;;;5.50;99.90;;;;;;4789081;29;20495;-80
2021/04/04 08:30:04;;;;;;;10.73;4.40;;;5.70;99.90;;;;;;4788891;29;20057;-80
2021/04/04 08:32:44;;;;;;;6.78;3.85;;;5.80;99.90;;;;;;4788340;29;20134;-80
2021/04/04 08:35:29;;;;;;;8.65;4.55;;;6.00;99.90;;;;;;4801179;29;20050;-80
2021/04/04 08:38:22;;;;;;;6.07;3.60;;;6.10;99.90;;;;;;4787318;29;20051;-80
2021/04/04 08:40:57;;;;;;;7.65;3.58;;;6.30;99.90;;;;;;4816846;29;20515;-80
2021/04/04 08:43:28;;;;;;;8.25;3.72;;;6.40;99.90;;;;;;4786764;29;20060;-80
2021/04/04 08:45:58;;;;;;;8.40;3.60;;;6.50;99.90;;;;;;4784357;29;20868;-80
2021/04/04 08:48:31;;;;;;;6.85;3.55;;;6.60;99.90;;;;;;4802394;29;20133;-80
2021/04/04 08:51:09;;;;;;;7.53;2.95;;;6.80;99.90;;;;;;4773546;29;20055;-80
2021/04/04 08:53:43;;;;;;;4.25;2.45;;;6.90;97.50;;;;;;4773428;29;20418;-80
2021/04/04 08:56:16;;;;;;;6.40;3.10;;;7.00;95.90;;;;;;4787509;29;20047;-80
2021/04/04 08:59:40;;;;;;;9.45;3.25;;;7.10;96.50;;;;;;4796463;29;20522;-79
2021/04/04 09:02:14;;;;;;;7.90;3.85;;;7.30;95.90;;;;;;4792387;29;20050;-80
2021/04/04 09:04:45;;;;;;;7.38;3.50;;;7.50;93.20;;;;;;4793848;29;20594;-80
2021/04/04 09:07:19;;;;;;;5.70;3.03;;;7.60;93.10;;;;;;4781897;29;20047;-78
2021/04/04 09:09:52;;;;;;;3.97;2.50;;;7.80;92.70;;;;;;4773222;30;20145;-80
2021/04/04 09:12:21;;;;;;;6.47;2.63;;;8.00;92.70;;;;;;4771410;29;20059;-80
2021/04/04 09:14:52;;;;;;;5.05;2.70;;;8.20;91.10;;;;;;4801376;29;20057;-80
2021/04/04 09:17:23;;;;;;;6.40;2.53;;;8.30;87.20;;;;;;4805505;29;20134;-80
2021/04/04 09:20:00;;;;;;;4.28;2.90;;;8.40;84.30;;;;;;4805119;29;20133;-80
2021/04/04 09:22:35;;;;;;;4.43;2.85;;;8.40;79.70;;;;;;4790542;29;20082;-80
2021/04/04 09:25:07;;;;;;;5.97;2.67;;;8.30;76.90;;;;;;4790378;29;20518;-80
2021/04/04 09:27:40;;;;;;;5.55;2.95;;;8.40;79.80;;;;;;4790378;29;20519;-81
2021/04/04 09:30:33;;;;;;;3.35;2.40;;;8.50;76.90;;;;;;4790296;29;20149;-80
2021/04/04 09:33:19;;;;;;;3.83;2.60;;;8.60;68.70;;;;;;4806787;29;20141;-80
2021/04/04 09:36:03;;;;;;;3.83;2.50;;;8.60;63.40;;;;;;4792853;29;20133;-81
2021/04/04 09:38:42;;;;;;;4.55;2.53;;;8.60;62.50;;;;;;4756772;30;20047;-80
2021/04/04 09:41:13;;;;;;;4.47;2.50;;;8.70;62.10;;;;;;4769485;30;20146;-81
2021/04/04 09:44:00;;;;;;;3.53;2.40;;;8.80;61.20;;;;;;4755616;30;20156;-80
2021/04/04 09:46:32;;;;;;;4.30;2.55;;;8.80;61.00;;;;;;4755304;30;20070;-80
2021/04/04 09:49:11;;;;;;;6.55;2.63;;;8.80;61.20;;;;;;4789814;29;20106;-81
2021/04/04 10:05:11;;;;;;;6.63;2.25;;;9.00;57.40;;;;;;4808875;29;20055;-80
2021/04/04 10:07:52;;;;;;;4.32;2.03;;;8.90;57.50;;;;;;4772760;29;20040;-83
2021/04/04 10:10:58;;;;;;;6.50;2.95;;;8.80;58.60;;;;;;4784148;29;20059;-80
2021/04/04 10:13:31;;;;;;;7.90;3.70;;;8.80;58.10;;;;;;4739052;30;20056;-81
2021/04/04 12:03:25;;;;;;;5.80;3.35;;;11.60;51.40;;;;;;4800907;24;20118;-81
2021/04/04 12:05:57;;;;;;;4.75;2.28;;;11.70;50.50;;;;;;4771164;30;20081;-81
2021/04/04 12:08:32;;;;;;;3.00;2.22;;;11.80;49.80;;;;;;4788507;30;20051;-81
2021/04/04 12:11:06;;;;;;;5.20;2.78;;;11.80;49.10;;;;;;4838265;24;20527;-80
2021/04/04 12:25:37;;;;;;;3.85;2.13;;;11.40;48.60;;;;;;4781334;30;20067;-80
2021/04/04 12:28:04;;;;;;;5.55;2.45;;;11.50;48.30;;;;;;4771830;30;20093;-80
2021/04/04 12:30:45;;;;;;;5.03;2.22;;;11.50;48.50;;;;;;4787407;30;20058;-81
2021/04/04 12:33:21;;;;;;;7.97;2.80;;;11.50;50.60;;;;;;4771408;30;20059;-80
2021/04/04 12:36:19;;;;;;;4.03;2.80;;;11.60;48.20;;;;;;4767103;30;20698;-81
2021/04/04 12:39:57;;;;;;;4.07;2.53;;;11.50;46.90;;;;;;4784719;30;20054;-81
2021/04/04 12:43:01;;;;;;;5.70;2.50;;;11.50;49.00;;;;;;4876919;24;20104;-81
2021/04/04 12:45:34;;;;;;;4.70;2.45;;;11.60;48.80;;;;;;4785354;29;20050;-81
2021/04/04 12:48:01;;;;;;;4.60;2.45;;;11.70;47.80;;;;;;4798224;29;20118;-84
2021/04/04 13:06:24;;;;;;;5.00;2.70;;;11.70;47.60;;;;;;4792031;30;20062;-82
2021/04/04 13:08:51;;;;;;;4.05;2.30;;;11.80;46.80;;;;;;4763047;30;20122;-82
2021/04/04 13:11:20;;;;;;;3.33;2.45;;;11.90;47.70;;;;;;4779016;30;20058;-81
2021/04/04 13:13:47;;;;;;;10.10;3.50;;;11.90;47.10;;;;;;4781561;30;20146;-83
2021/04/04 13:29:57;;;;;;;3.67;2.00;;;11.90;46.40;;;;;;4749499;30;20068;-82
2021/04/04 13:47:05;;;;;;;4.35;2.00;;;12.80;44.60;;;;;;4783065;30;20153;-82
2021/04/04 13:49:36;;;;;;;3.13;2.05;;;12.90;43.60;;;;;;4767961;30;20111;-82
2021/04/04 14:22:20;;;;;;;4.53;2.30;;;13.40;42.00;;;;;;4847582;24;20333;-83
2021/04/04 14:25:43;;;;;;;6.68;3.75;;;13.60;42.70;;;;;;4801445;29;20537;-82
2021/04/04 14:33:10;;;;;;;4.65;2.70;;;14.10;40.70;;;;;;4825949;24;20052;-81
2021/04/04 14:35:37;;;;;;;4.63;2.45;;;14.20;41.00;;;;;;4768452;30;20065;-82
2021/04/04 14:43:31;;;;;;;4.75;2.97;;;14.40;40.00;;;;;;4798516;29;20039;-82
2021/04/04 14:47:19;;;;;;;3.83;2.28;;;14.60;40.40;;;;;;4790910;30;20054;-82
2021/04/04 14:53:26;;;;;;;2.92;2.00;;;14.70;39.00;;;;;;4905802;24;20058;-83
2021/04/04 14:55:58;;;;;;;6.05;2.55;;;15.00;39.80;;;;;;4783548;29;20054;-82
2021/04/04 14:58:26;;;;;;;5.05;2.35;;;15.50;39.00;;;;;;4782563;29;20054;-82
2021/04/04 15:00:54;;;;;;;4.07;2.80;;;15.70;38.00;;;;;;4862492;24;20101;-82
2021/04/04 15:03:23;;;;;;;3.03;2.40;;;16.00;37.30;;;;;;4779981;30;20116;-83
2021/04/04 15:05:50;;;;;;;3.13;2.35;;;16.40;36.80;;;;;;4767488;30;20055;-82
2021/04/04 15:08:18;;;;;;;3.40;2.13;;;16.50;36.00;;;;;;4784931;30;20093;-82
2021/04/04 15:17:16;;;;;;;3.58;2.53;;;17.20;36.30;;;;;;5878472;24;20853;31
2021/04/04 15:19:43;;;;;;;4.00;2.30;;;17.20;35.10;;;;;;4763603;30;20074;-82
2021/04/04 15:22:49;;;;;;;3.80;2.42;;;16.90;35.60;;;;;;5386746;24;20992;-81
2021/04/04 15:25:18;;;;;;;3.85;2.58;;;17.10;35.60;;;;;;4783608;30;20335;-82
2021/04/04 15:27:46;;;;;;;3.70;2.50;;;17.30;35.20;;;;;;4785714;30;20055;-82
2021/04/04 15:34:27;;;;;;;6.07;2.90;;;17.60;34.00;;;;;;4767349;30;20198;-81
2021/04/04 15:36:54;;;;;;;3.83;2.40;;;18.10;34.70;;;;;;4753548;30;20056;-80
2021/04/04 15:39:24;;;;;;;4.15;2.08;;;18.60;33.60;;;;;;4761276;30;20035;-81
2021/04/04 15:41:52;;;;;;;4.18;2.47;;;18.80;35.50;;;;;;4742703;30;20076;-81
2021/04/04 15:44:18;;;;;;;11.98;7.10;;;19.20;33.00;;;;;;4741277;30;20056;-80
2021/04/04 15:46:50;;;;;;;10.82;7.50;;;19.60;32.10;;;;;;4734253;30;20064;-76
2021/04/04 15:49:21;;;;;;;16.48;9.90;;;19.90;32.60;;;;;;4742090;30;20133;-80
2021/04/04 15:51:52;;;;;;;8.13;4.60;;;19.80;32.20;;;;;;4739927;30;20052;-81
2021/04/04 15:54:24;;;;;;;4.90;2.60;;;20.10;30.80;;;;;;4732193;30;20057;-80
2021/04/04 15:56:55;;;;;;;5.00;2.80;;;19.90;30.90;;;;;;4738320;30;20125;-79
2021/04/04 15:59:26;;;;;;;3.75;2.33;;;19.10;31.40;;;;;;4729083;30;20044;-80
2021/04/04 16:01:53;;;;;;;3.63;2.63;;;18.60;32.70;;;;;;4730177;30;20135;-80
2021/04/04 16:04:19;;;;;;;4.00;3.00;;;18.20;32.80;;;;;;4729918;30;20053;-80
2021/04/04 16:06:45;;;;;;;4.85;2.58;;;17.80;33.60;;;;;;4740075;30;20056;-80
2021/04/04 16:09:11;;;;;;;4.82;2.53;;;17.90;34.30;;;;;;4721526;30;20064;-80
2021/04/04 16:11:41;;;;;;;4.28;2.85;;;18.00;33.70;;;;;;4731395;30;20157;-80
2021/04/04 16:14:09;;;;;;;4.38;2.60;;;18.20;33.40;;;;;;4723679;30;20048;-80
2021/04/04 16:16:49;;;;;;;3.05;2.35;;;18.50;32.80;;;;;;4743380;30;20059;-80
2021/04/04 16:19:21;;;;;;;3.63;2.90;;;18.80;32.70;;;;;;4739304;30;20467;-80
2021/04/04 16:21:52;;;;;;;4.10;2.40;;;18.80;32.30;;;;;;4741971;30;20059;-80
2021/04/04 16:24:19;;;;;;;4.32;3.10;;;19.10;31.60;;;;;;4740701;30;20075;-80
2021/04/04 16:26:46;;;;;;;4.63;2.40;;;19.00;31.60;;;;;;4743962;30;20116;-80
2021/04/04 16:29:12;;;;;;;4.57;2.47;;;18.90;31.20;;;;;;4740442;30;20056;-80
2021/04/04 16:31:44;;;;;;;4.95;2.80;;;19.30;31.60;;;;;;4726641;30;20056;-80
2021/04/04 16:34:15;;;;;;;3.10;2.17;;;19.60;31.40;;;;;;4739871;30;20125;-80
2021/04/04 16:36:41;;;;;;;3.55;2.45;;;19.60;30.60;;;;;;4740401;30;20048;-80
2021/04/04 16:39:13;;;;;;;3.33;2.30;;;19.40;30.20;;;;;;4740279;30;20040;-82
2021/04/04 16:41:39;;;;;;;3.45;2.45;;;19.20;30.60;;;;;;4755347;30;20499;-82
2021/04/04 16:44:06;;;;;;;5.28;3.20;;;19.10;31.00;;;;;;4732001;30;20053;-80
2021/04/04 16:46:33;;;;;;;5.35;2.60;;;18.90;31.40;;;;;;4749945;30;20483;-80
2021/04/04 16:48:59;;;;;;;6.00;2.58;;;18.30;31.60;;;;;;4735768;30;20059;-80
2021/04/04 16:51:26;;;;;;;4.82;3.03;;;18.00;32.30;;;;;;4737478;30;20076;-80
2021/04/04 16:53:53;;;;;;;3.53;2.58;;;17.80;32.80;;;;;;4739836;30;20125;-80
2021/04/04 16:56:19;;;;;;;4.72;2.22;;;17.60;37.80;;;;;;4736919;30;20045;-80
2021/04/04 16:58:51;;;;;;;3.33;1.90;;;17.10;38.90;;;;;;4750440;30;20192;-80
2021/04/04 17:01:17;;;;;;;3.55;2.17;;;16.70;42.40;;;;;;4734707;30;20045;-80
2021/04/04 17:03:44;;;;;;;4.68;1.88;;;16.20;45.70;;;;;;4736559;30;20052;-79
2021/04/04 17:06:11;;;;;;;3.30;1.70;;;15.80;46.80;;;;;;4722882;30;20422;-78
2021/04/04 17:08:37;;;;;;;7.28;2.53;;;15.20;47.20;;;;;;4729237;30;20076;-78
2021/04/04 17:11:04;;;;;;;3.75;3.00;;;14.60;48.00;;;;;;4738567;30;20087;-80
2021/04/04 17:13:36;;;;;;;3.20;1.90;;;14.00;49.40;;;;;;4723916;30;20057;-79
2021/04/04 17:16:08;;;;;;;4.78;2.17;;;13.40;51.60;;;;;;4736843;30;20048;-78
2021/04/04 17:18:34;;;;;;;3.85;1.95;;;12.90;53.00;;;;;;4722001;30;20076;-79
2021/04/04 17:21:06;;;;;;;2.28;1.90;;;12.50;53.80;;;;;;4724109;30;20044;-78
2021/04/04 17:23:33;;;;;;;5.00;2.08;;;12.10;54.90;;;;;;4738236;30;20147;-78
2021/04/04 17:26:05;;;;;;;3.22;1.80;;;11.80;56.70;;;;;;4739312;30;20505;-78
2021/04/04 17:28:37;;;;;;;5.22;2.72;;;11.40;57.60;;;;;;4736506;30;20056;-78
2021/04/04 17:31:05;;;;;;;4.97;2.17;;;11.10;58.60;;;;;;4866599;24;20059;-78
2021/04/04 17:33:37;;;;;;;4.40;2.00;;;10.80;59.50;;;;;;4779259;29;20061;-78
2021/04/04 17:36:09;;;;;;;5.28;2.00;;;10.60;60.70;;;;;;4790833;29;20051;-78